createdAt,value
2023-05-22T00:02:11.106Z,94475.34
2023-05-22T00:04:40.056Z,94468.28
2023-05-22T00:07:07.792Z,94465.00
2023-05-22T00:09:35.428Z,94459.78
2023-05-22T00:12:03.058Z,94471.28
2023-05-22T00:14:30.669Z,94458.47
2023-05-22T00:17:00.213Z,94457.34
2023-05-22T00:19:30.459Z,94462.81
2023-05-22T00:21:58.245Z,94461.47
2023-05-22T00:24:25.936Z,94460.66
2023-05-22T00:26:53.517Z,94453.28
2023-05-22T00:29:21.135Z,94458.75
2023-05-22T00:31:48.766Z,94457.41
2023-05-22T00:34:17.764Z,94460.72
2023-05-22T00:36:45.495Z,94459.06
2023-05-22T00:39:13.134Z,94463.19
2023-05-22T00:41:40.758Z,94454.72
2023-05-22T00:44:08.404Z,94453.88
2023-05-22T00:46:36.424Z,94454.47
2023-05-22T00:49:04.198Z,94450.66
2023-05-22T00:51:33.145Z,94454.47
2023-05-22T00:54:00.928Z,94458.31
2023-05-22T00:56:28.999Z,94467.31
2023-05-22T00:58:56.673Z,94464.31
2023-05-22T01:01:26.346Z,94471.16
2023-05-22T01:03:55.660Z,94460.78
2023-05-22T01:06:23.417Z,94463.53
2023-05-22T01:08:52.371Z,94474.47
2023-05-22T01:11:23.181Z,94474.19
2023-05-22T01:13:56.198Z,94478.28
2023-05-22T01:16:29.832Z,94474.47
2023-05-22T01:19:02.802Z,94471.19
2023-05-22T01:21:35.535Z,94483.47
2023-05-22T01:24:21.828Z,94489.75
2023-05-22T01:27:17.581Z,94495.22
2023-05-22T01:29:48.330Z,94504.50
2023-05-22T01:32:18.500Z,94511.59
2023-05-22T01:34:47.697Z,94509.13
2023-05-22T01:37:16.349Z,94509.66
2023-05-22T01:39:44.457Z,94513.19
2023-05-22T01:42:12.123Z,94506.09
2023-05-22T01:44:39.766Z,94515.38
2023-05-22T01:47:08.347Z,94511.00
2023-05-22T01:49:37.673Z,94516.75
2023-05-22T01:52:12.209Z,94504.16
2023-05-22T01:54:45.415Z,94508.28
2023-05-22T01:57:17.856Z,94507.19
2023-05-22T01:59:48.491Z,94510.75
2023-05-22T02:02:18.353Z,94513.16
2023-05-22T02:04:50.669Z,94514.81
2023-05-22T02:07:20.654Z,94513.44
2023-05-22T02:09:48.958Z,94520.56
2023-05-22T02:12:16.987Z,94509.38
2023-05-22T02:14:45.045Z,94515.34
2023-05-22T02:17:12.784Z,94510.16
2023-05-22T02:19:40.562Z,94513.16
2023-05-22T02:22:13.572Z,94511.78
2023-05-22T02:24:42.097Z,94513.09
2023-05-22T02:27:10.590Z,94516.63
2023-05-22T02:29:38.342Z,94506.50
2023-05-22T02:32:06.782Z,94508.16
2023-05-22T02:34:34.974Z,94508.16
2023-05-22T02:37:04.082Z,94513.88
2023-05-22T02:39:33.071Z,94517.66
2023-05-22T02:42:00.788Z,94513.00
2023-05-22T02:44:28.445Z,94508.88
2023-05-22T02:46:56.183Z,94505.34
2023-05-22T02:49:23.899Z,94517.06
2023-05-22T02:51:51.529Z,94516.78
2023-05-22T02:54:19.158Z,94521.44
2023-05-22T02:56:48.139Z,94516.78
2023-05-22T02:59:16.498Z,94511.03
2023-05-22T03:01:44.402Z,94522.19
2023-05-22T03:04:12.941Z,94523.28
2023-05-22T03:06:40.759Z,94506.09
2023-05-22T03:09:08.745Z,94523.28
2023-05-22T03:11:36.390Z,94528.19
2023-05-22T03:14:05.375Z,94528.44
2023-05-22T03:16:34.421Z,94530.34
2023-05-22T03:19:09.326Z,94523.78
2023-05-22T03:21:37.392Z,94524.03
2023-05-22T03:24:05.271Z,94527.59
2023-05-22T03:26:32.859Z,94535.78
2023-05-22T03:29:00.515Z,94532.47
2023-05-22T03:31:31.382Z,94533.84
2023-05-22T03:33:59.051Z,94533.59
2023-05-22T03:36:26.731Z,94534.66
2023-05-22T03:38:54.499Z,94533.03
2023-05-22T03:41:22.322Z,94533.56
2023-05-22T03:43:49.973Z,94542.25
2023-05-22T03:46:17.811Z,94525.63
2023-05-22T03:48:46.831Z,94529.44
2023-05-22T03:51:14.420Z,94532.72
2023-05-22T03:53:42.027Z,94530.28
2023-05-22T03:56:09.621Z,94525.34
2023-05-22T03:58:37.223Z,94534.59
2023-05-22T04:01:05.187Z,94525.34
2023-05-22T04:03:32.816Z,94540.34
2023-05-22T04:06:01.807Z,94536.81
2023-05-22T04:08:30.581Z,94541.19
2023-05-22T04:10:58.182Z,94534.09
2023-05-22T04:13:25.800Z,94530.31
2023-05-22T04:15:53.649Z,94537.94
2023-05-22T04:18:21.346Z,94540.97
2023-05-22T04:20:51.763Z,94536.63
2023-05-22T04:23:21.453Z,94539.63
2023-05-22T04:25:49.036Z,94542.09
2023-05-22T04:28:18.181Z,94543.75
2023-05-22T04:30:46.019Z,94542.69
2023-05-22T04:33:13.782Z,94544.59
2023-05-22T04:35:42.359Z,94549.25
2023-05-22T04:38:10.578Z,94549.06
2023-05-22T04:40:39.923Z,94550.16
2023-05-22T04:43:07.796Z,94550.72
2023-05-22T04:45:35.530Z,94549.09
2023-05-22T04:48:03.568Z,94553.50
2023-05-22T04:50:32.422Z,94549.69
2023-05-22T04:53:00.746Z,94548.06
2023-05-22T04:55:28.372Z,94552.22
2023-05-22T04:57:57.419Z,94556.31
2023-05-22T05:00:26.554Z,94550.59
2023-05-22T05:02:54.378Z,94553.88
2023-05-22T05:05:22.149Z,94559.38
2023-05-22T05:07:50.773Z,94556.41
2023-05-22T05:10:18.564Z,94555.84
2023-05-22T05:12:46.433Z,94557.78
2023-05-22T05:15:15.421Z,94562.72
2023-05-22T05:17:43.262Z,94557.81
2023-05-22T05:20:14.389Z,94559.44
2023-05-22T05:22:43.971Z,94560.28
2023-05-22T05:25:11.945Z,94565.75
2023-05-22T05:27:39.942Z,94556.47
2023-05-22T05:30:08.826Z,94558.94
2023-05-22T05:32:37.866Z,94559.72
2023-05-22T05:35:06.343Z,94561.34
2023-05-22T05:37:33.953Z,94564.59
2023-05-22T05:40:01.529Z,94562.41
2023-05-22T05:42:29.131Z,94564.56
2023-05-22T05:44:56.700Z,94555.47
2023-05-22T05:47:24.895Z,94564.44
2023-05-22T05:49:53.847Z,94566.28
2023-05-22T05:52:21.483Z,94556.91
2023-05-22T05:54:49.388Z,94563.09
2023-05-22T05:57:17.258Z,94566.03
2023-05-22T05:59:44.850Z,94564.81
2023-05-22T06:02:12.810Z,94576.41
2023-05-22T06:04:40.399Z,94567.75
2023-05-22T06:07:09.381Z,94564.84
2023-05-22T06:09:37.073Z,94561.88
2023-05-22T06:12:05.154Z,94569.28
2023-05-22T06:14:33.369Z,94566.00
2023-05-22T06:17:01.041Z,94568.28
2023-05-22T06:19:28.730Z,94563.63
2023-05-22T06:21:56.540Z,94573.00
2023-05-22T06:24:25.520Z,94577.09
2023-05-22T06:26:53.194Z,94573.28
2023-05-22T06:29:21.209Z,94571.63
2023-05-22T06:31:48.842Z,94571.56
2023-05-22T06:34:16.495Z,94564.91
2023-05-22T06:36:45.980Z,94567.56
2023-05-22T06:39:13.654Z,94565.94
2023-05-22T06:41:42.580Z,94565.88
2023-05-22T06:44:10.353Z,94567.78
2023-05-22T06:46:38.060Z,94572.75
2023-05-22T06:49:06.146Z,94578.16
2023-05-22T06:51:34.167Z,94576.97
2023-05-22T06:54:03.593Z,94577.47
2023-05-22T06:56:31.899Z,94586.41
2023-05-22T06:59:00.846Z,94576.13
2023-05-22T07:01:29.343Z,94581.59
2023-05-22T07:03:58.724Z,94580.22
2023-05-22T07:06:26.363Z,94589.72
2023-05-22T07:08:54.342Z,94583.50
2023-05-22T07:11:22.379Z,94583.72
2023-05-22T07:13:50.011Z,94582.28
2023-05-22T07:16:19.060Z,94592.03
2023-05-22T07:18:47.004Z,94595.66
2023-05-22T07:21:14.692Z,94593.56
2023-05-22T07:23:42.323Z,94601.38
2023-05-22T07:26:10.863Z,94596.16
2023-05-22T07:28:38.811Z,94604.41
2023-05-22T07:31:06.584Z,94596.28
2023-05-22T07:33:35.702Z,94600.53
2023-05-22T07:36:03.374Z,94590.19
2023-05-22T07:38:32.012Z,94594.53
2023-05-22T07:40:59.627Z,94595.31
2023-05-22T07:43:27.214Z,94591.00
2023-05-22T07:45:55.020Z,94597.94
2023-05-22T07:48:22.662Z,94597.63
2023-05-22T07:50:51.639Z,94586.72
2023-05-22T07:53:19.217Z,94593.03
2023-05-22T07:55:46.800Z,94597.63
2023-05-22T07:58:14.682Z,94588.69
2023-05-22T08:00:42.734Z,94591.25
2023-05-22T08:03:10.394Z,94587.34
2023-05-22T08:05:38.055Z,94592.16
2023-05-22T08:08:07.114Z,94591.69
2023-05-22T08:10:52.215Z,94591.28
2023-05-22T08:13:20.349Z,94588.00
2023-05-22T08:15:47.965Z,94583.69
2023-05-22T08:18:15.637Z,94588.22
2023-05-22T08:20:43.243Z,94588.44
2023-05-22T08:23:12.137Z,94586.03
2023-05-22T08:25:39.689Z,94579.41
2023-05-22T08:28:07.358Z,94581.66
2023-05-22T08:30:35.879Z,94588.56
2023-05-22T08:33:03.622Z,94579.06
2023-05-22T08:35:31.328Z,94578.34
2023-05-22T08:37:58.838Z,94581.78
2023-05-22T08:40:35.617Z,94579.81
2023-05-22T08:43:03.236Z,94576.09
2023-05-22T08:45:34.092Z,94575.38
2023-05-22T08:48:06.009Z,94582.50
2023-05-22T08:50:34.770Z,94571.56
2023-05-22T08:53:03.211Z,94573.31
2023-05-22T08:55:32.195Z,94579.44
2023-05-22T08:58:00.661Z,94581.56
2023-05-22T09:00:29.692Z,94580.31
2023-05-22T09:02:57.624Z,94579.44
2023-05-22T09:05:26.819Z,94579.06
2023-05-22T09:07:56.521Z,94580.38
2023-05-22T09:10:26.592Z,94579.22
2023-05-22T09:13:05.669Z,94579.84
2023-05-22T09:15:33.852Z,94569.56
2023-05-22T09:18:01.909Z,94565.06
2023-05-22T09:20:29.498Z,94567.16
2023-05-22T09:22:57.168Z,94565.31
2023-05-22T09:25:26.459Z,94566.94
2023-05-22T09:27:54.267Z,94573.69
2023-05-22T09:30:23.288Z,94574.69
2023-05-22T09:32:51.104Z,94571.25
2023-05-22T09:35:20.107Z,94576.94
2023-05-22T09:37:47.837Z,94572.00
2023-05-22T09:40:15.682Z,94575.81
2023-05-22T09:42:45.899Z,94576.91
2023-05-22T09:45:13.861Z,94574.88
2023-05-22T09:47:43.268Z,94576.53
2023-05-22T09:50:11.869Z,94583.94
2023-05-22T09:52:39.719Z,94587.56
2023-05-22T09:55:09.029Z,94582.44
2023-05-22T09:57:43.379Z,94577.31
2023-05-22T10:00:15.751Z,94579.81
2023-05-22T10:02:46.964Z,94586.78
2023-05-22T10:05:21.409Z,94581.47
2023-05-22T10:07:51.736Z,94582.97
2023-05-22T10:10:21.599Z,94584.56
2023-05-22T10:12:53.884Z,94578.22
2023-05-22T10:15:22.270Z,94574.53
2023-05-22T10:17:51.680Z,94573.59
2023-05-22T10:20:20.337Z,94580.63
2023-05-22T10:22:48.899Z,94579.22
2023-05-22T10:25:18.258Z,94573.16
2023-05-22T10:27:46.640Z,94580.81
2023-05-22T10:30:24.182Z,94574.13
2023-05-22T10:32:59.081Z,94580.13
2023-05-22T10:35:32.702Z,94572.72
2023-05-22T10:38:15.003Z,94585.75
2023-05-22T10:40:42.765Z,94571.59
2023-05-22T10:43:10.629Z,94567.81
2023-05-22T10:45:38.320Z,94570.84
2023-05-22T10:48:08.878Z,94564.31
2023-05-22T10:50:37.214Z,94572.63
2023-05-22T10:53:24.707Z,94564.91
2023-05-22T10:55:53.462Z,94570.81
2023-05-22T10:58:27.143Z,94569.09
2023-05-22T11:01:09.681Z,94566.50
2023-05-22T11:03:58.444Z,94568.06
2023-05-22T11:06:37.397Z,94564.56
2023-05-22T11:09:29.199Z,94558.63
2023-05-22T11:12:16.969Z,94554.88
2023-05-22T11:14:48.648Z,94551.97
2023-05-22T11:17:18.859Z,94556.03
2023-05-22T11:19:58.648Z,94550.94
2023-05-22T11:22:31.886Z,94549.53
2023-05-22T11:24:59.536Z,94551.13
2023-05-22T11:27:27.674Z,94548.56
2023-05-22T11:29:56.009Z,94546.78
2023-05-22T11:32:24.419Z,94546.88
2023-05-22T11:34:54.030Z,94536.91
2023-05-22T11:37:21.698Z,94540.28
2023-05-22T11:39:53.152Z,94542.59
2023-05-22T11:42:21.138Z,94546.41
2023-05-22T11:44:48.789Z,94545.94
2023-05-22T11:47:16.483Z,94537.25
2023-05-22T11:49:44.389Z,94541.41
2023-05-22T11:52:13.285Z,94535.47
2023-05-22T11:54:40.883Z,94533.72
2023-05-22T11:57:09.674Z,94531.84
2023-05-22T11:59:37.227Z,94522.59
2023-05-22T12:02:04.877Z,94521.28
2023-05-22T12:04:33.644Z,94515.06
2023-05-22T12:07:01.320Z,94526.81
2023-05-22T12:09:30.259Z,94508.06
2023-05-22T12:11:58.053Z,94519.31
2023-05-22T12:14:27.166Z,94516.81
2023-05-22T12:16:54.895Z,94516.22
2023-05-22T12:19:22.651Z,94509.31
2023-05-22T12:21:50.819Z,94520.44
2023-05-22T12:24:23.155Z,94516.38
2023-05-22T12:26:52.345Z,94509.78
2023-05-22T12:29:20.001Z,94509.91
2023-05-22T12:31:47.646Z,94506.50
2023-05-22T12:34:17.120Z,94499.97
2023-05-22T12:36:45.619Z,94502.19
2023-05-22T12:39:18.947Z,94499.38
2023-05-22T12:41:46.966Z,94501.66
2023-05-22T12:44:16.960Z,94495.97
2023-05-22T12:46:44.648Z,94499.25
2023-05-22T12:49:12.375Z,94489.72
2023-05-22T12:51:40.054Z,94485.38
2023-05-22T12:54:07.652Z,94485.00
2023-05-22T12:56:35.237Z,94490.13
2023-05-22T12:59:03.947Z,94485.22
2023-05-22T13:01:32.996Z,94489.63
2023-05-22T13:04:00.765Z,94485.09
2023-05-22T13:06:30.290Z,94483.41
2023-05-22T13:09:00.856Z,94478.41
2023-05-22T13:11:28.706Z,94472.50
2023-05-22T13:13:56.394Z,94473.06
2023-05-22T13:16:24.039Z,94479.50
2023-05-22T13:18:53.098Z,94475.59
2023-05-22T13:21:20.788Z,94468.91
2023-05-22T13:23:48.509Z,94469.72
2023-05-22T13:26:16.302Z,94463.75
2023-05-22T13:28:43.974Z,94462.38
2023-05-22T13:31:11.672Z,94462.81
2023-05-22T13:33:39.358Z,94458.06
2023-05-22T13:36:08.747Z,94465.09
2023-05-22T13:38:36.933Z,94457.97
2023-05-22T13:41:04.736Z,94459.41
2023-05-22T13:43:32.456Z,94459.06
2023-05-22T13:46:00.179Z,94456.38
2023-05-22T13:48:27.902Z,94459.13
2023-05-22T13:50:55.657Z,94454.06
2023-05-22T13:53:24.752Z,94452.63
2023-05-22T13:55:52.434Z,94452.03
2023-05-22T13:58:20.137Z,94455.50
2023-05-22T14:00:47.925Z,94451.16
2023-05-22T14:03:17.699Z,94450.16
2023-05-22T14:05:45.637Z,94457.97
2023-05-22T14:08:13.674Z,94455.09
2023-05-22T14:10:42.961Z,94443.44
2023-05-22T14:13:10.643Z,94446.53
2023-05-22T14:15:38.693Z,94445.00
2023-05-22T14:18:06.552Z,94440.16
2023-05-22T14:20:34.296Z,94435.25
2023-05-22T14:23:01.906Z,94433.28
2023-05-22T14:25:29.593Z,94430.13
2023-05-22T14:27:58.609Z,94435.50
2023-05-22T14:30:26.295Z,94436.69
2023-05-22T14:32:54.090Z,94439.22
2023-05-22T14:35:22.092Z,94441.59
2023-05-22T14:37:49.996Z,94443.25
2023-05-22T14:40:17.903Z,94449.06
2023-05-22T14:42:45.751Z,94435.81
2023-05-22T14:45:14.892Z,94448.84
2023-05-22T14:47:43.326Z,94456.31
2023-05-22T14:50:18.861Z,94459.75
2023-05-22T14:52:47.749Z,94454.41
2023-05-22T14:55:15.476Z,94450.44
2023-05-22T14:57:43.120Z,94453.66
2023-05-22T15:00:12.213Z,94450.00
2023-05-22T15:02:41.518Z,94452.72
2023-05-22T15:05:10.216Z,94451.47
2023-05-22T15:10:10.250Z,94460.16
2023-05-22T15:12:37.898Z,94459.13
2023-05-22T15:15:06.208Z,94467.34
2023-05-22T15:17:33.883Z,94456.91
2023-05-22T15:20:04.264Z,94454.13
2023-05-22T15:22:31.929Z,94451.09
2023-05-22T15:25:06.323Z,94449.84
2023-05-22T15:27:34.610Z,94446.84
2023-05-22T15:30:02.342Z,94440.78
2023-05-22T15:32:30.716Z,94432.22
2023-05-22T15:34:58.492Z,94442.28
2023-05-22T15:37:29.185Z,94442.03
2023-05-22T15:39:58.511Z,94442.03
2023-05-22T15:42:26.183Z,94448.53
2023-05-22T15:44:53.846Z,94461.16
2023-05-22T15:47:21.519Z,94452.59
2023-05-22T15:49:49.173Z,94444.09
2023-05-22T15:52:16.824Z,94452.41
2023-05-22T15:54:45.964Z,94446.28
2023-05-22T15:57:13.607Z,94441.47
2023-05-22T15:59:41.246Z,94450.31
2023-05-22T16:02:09.037Z,94451.06
2023-05-22T16:04:36.701Z,94443.53
2023-05-22T16:07:04.393Z,94446.03
2023-05-22T16:09:32.842Z,94446.94
2023-05-22T16:12:02.002Z,94452.03
2023-05-22T16:14:29.644Z,94456.19
2023-05-22T16:16:57.805Z,94452.84
2023-05-22T16:19:25.554Z,94454.59
2023-05-22T16:21:53.188Z,94456.94
2023-05-22T16:24:20.804Z,94456.59
2023-05-22T16:26:48.412Z,94443.09
2023-05-22T16:29:20.428Z,94450.19
2023-05-22T16:31:48.282Z,94453.25
2023-05-22T16:34:15.937Z,94452.91
2023-05-22T16:36:43.641Z,94452.53
2023-05-22T16:39:11.295Z,94456.94
2023-05-22T16:41:39.018Z,94446.59
2023-05-22T16:44:06.631Z,94451.63
2023-05-22T16:46:37.308Z,94442.97
2023-05-22T16:49:07.348Z,94448.81
2023-05-22T16:51:34.942Z,94438.13
2023-05-22T16:54:02.548Z,94438.94
2023-05-22T16:56:30.120Z,94443.72
2023-05-22T16:58:57.724Z,94437.22
2023-05-22T17:01:25.466Z,94429.75
2023-05-22T17:03:55.198Z,94435.78
2023-05-22T17:06:22.812Z,94431.81
2023-05-22T17:08:50.711Z,94433.28
2023-05-22T17:11:18.443Z,94434.53
2023-05-22T17:13:46.079Z,94437.94
2023-05-22T17:16:13.766Z,94442.28
2023-05-22T17:18:41.512Z,94451.16
2023-05-22T17:21:10.496Z,94447.81
2023-05-22T17:23:38.855Z,94453.88
2023-05-22T17:26:06.818Z,94447.31
2023-05-22T17:28:34.469Z,94452.34
2023-05-22T17:31:02.107Z,94457.75
2023-05-22T17:33:29.751Z,94464.13
2023-05-22T17:35:57.568Z,94470.38
2023-05-22T17:38:26.707Z,94466.41
2023-05-22T17:40:54.461Z,94472.66
2023-05-22T17:43:22.085Z,94476.59
2023-05-22T17:45:50.792Z,94474.25
2023-05-22T17:48:23.384Z,94471.69
2023-05-22T17:50:52.081Z,94474.19
2023-05-22T17:53:20.609Z,94472.09
2023-05-22T17:55:52.217Z,94473.88
2023-05-22T17:58:20.272Z,94476.19
2023-05-22T18:00:48.991Z,94486.84
2023-05-22T18:03:20.228Z,94484.06
2023-05-22T18:05:48.638Z,94482.72
2023-05-22T18:08:16.364Z,94484.06
2023-05-22T18:10:44.139Z,94481.50
2023-05-22T18:13:13.124Z,94480.75
2023-05-22T18:15:40.855Z,94475.81
2023-05-22T18:18:10.006Z,94476.22
2023-05-22T18:20:39.311Z,94478.53
2023-05-22T18:23:07.234Z,94481.13
2023-05-22T18:25:34.921Z,94480.97
2023-05-22T18:28:02.565Z,94492.59
2023-05-22T18:30:32.270Z,94497.31
2023-05-22T18:32:59.959Z,94496.72
2023-05-22T18:35:27.616Z,94497.25
2023-05-22T18:37:55.362Z,94499.78
2023-05-22T18:40:23.049Z,94509.63
2023-05-22T18:42:50.691Z,94508.97
2023-05-22T18:45:18.348Z,94509.84
2023-05-22T18:47:47.450Z,94514.28
2023-05-22T18:50:15.195Z,94528.88
2023-05-22T18:52:42.820Z,94519.75
2023-05-22T18:55:11.225Z,94521.94
2023-05-22T18:57:38.941Z,94525.88
2023-05-22T19:00:08.244Z,94522.94
2023-05-22T19:02:35.999Z,94540.56
2023-05-22T19:05:05.617Z,94549.38
2023-05-22T19:07:33.312Z,94557.53
2023-05-22T19:10:00.931Z,94555.28
2023-05-22T19:12:31.664Z,94551.34
2023-05-22T19:15:00.912Z,94557.53
2023-05-22T19:17:28.579Z,94566.16
2023-05-22T19:19:56.164Z,94571.47
2023-05-22T19:22:25.189Z,94571.63
2023-05-22T19:24:52.814Z,94585.25
2023-05-22T19:27:20.466Z,94582.41
2023-05-22T19:29:48.059Z,94591.59
2023-05-22T19:32:15.806Z,94578.94
2023-05-22T19:34:43.392Z,94584.25
2023-05-22T19:37:11.007Z,94579.78
2023-05-22T19:39:40.368Z,94582.28
2023-05-22T19:42:10.640Z,94575.81
2023-05-22T19:44:38.261Z,94571.13
2023-05-22T19:47:06.288Z,94568.88
2023-05-22T19:49:36.783Z,94572.69
2023-05-22T19:52:04.840Z,94579.25
2023-05-22T19:54:32.425Z,94576.13
2023-05-22T19:57:01.381Z,94572.69
2023-05-22T19:59:28.987Z,94580.75
2023-05-22T20:01:56.781Z,94580.34
2023-05-22T20:04:24.378Z,94587.50
2023-05-22T20:06:51.990Z,94582.38
2023-05-22T20:09:19.571Z,94578.72
2023-05-22T20:11:47.174Z,94569.53
2023-05-22T20:14:16.306Z,94565.44
2023-05-22T20:16:44.020Z,94575.75
2023-05-22T20:19:14.244Z,94572.25
2023-05-22T20:21:42.044Z,94573.16
2023-05-22T20:24:12.063Z,94578.97
2023-05-22T20:26:39.734Z,94567.16
2023-05-22T20:29:07.384Z,94568.38
2023-05-22T20:31:36.417Z,94577.66
2023-05-22T20:34:04.700Z,94577.28
2023-05-22T20:36:32.653Z,94572.88
2023-05-22T20:39:00.270Z,94566.44
2023-05-22T20:41:27.965Z,94569.19
2023-05-22T20:43:55.598Z,94574.09
2023-05-22T20:46:24.230Z,94575.75
2023-05-22T20:48:53.298Z,94567.91
2023-05-22T20:51:21.476Z,94573.34
2023-05-22T20:53:49.403Z,94577.28
2023-05-22T20:56:17.064Z,94575.66
2023-05-22T20:58:44.692Z,94575.59
2023-05-22T21:01:12.432Z,94580.50
2023-05-22T21:03:40.103Z,94564.09
2023-05-22T21:06:09.236Z,94567.69
2023-05-22T21:08:36.853Z,94561.66
2023-05-22T21:11:06.794Z,94556.00
2023-05-22T21:13:34.403Z,94568.56
2023-05-22T21:16:02.075Z,94562.44
2023-05-22T21:18:29.704Z,94565.50
2023-05-22T21:20:57.348Z,94576.19
2023-05-22T21:23:26.368Z,94583.06
2023-05-22T21:25:53.987Z,94577.63
2023-05-22T21:28:21.604Z,94582.84
2023-05-22T21:30:49.229Z,94585.28
2023-05-22T21:33:16.830Z,94587.75
2023-05-22T21:35:44.445Z,94581.28
2023-05-22T21:38:12.018Z,94584.94
2023-05-22T21:40:42.613Z,94582.81
2023-05-22T21:43:10.386Z,94592.13
2023-05-22T21:45:38.884Z,94594.69
2023-05-22T21:48:06.642Z,94598.38
2023-05-22T21:50:34.328Z,94595.91
2023-05-22T21:53:01.949Z,94599.16
2023-05-22T21:55:29.553Z,94593.16
2023-05-22T21:57:58.464Z,94615.34
2023-05-22T22:00:26.067Z,94614.53
2023-05-22T22:02:53.737Z,94607.09
2023-05-22T22:05:21.624Z,94612.31
2023-05-22T22:07:49.195Z,94598.75
2023-05-22T22:10:17.080Z,94600.00
2023-05-22T22:12:44.641Z,94609.66
2023-05-22T22:15:14.288Z,94604.31
2023-05-22T22:17:41.895Z,94599.31
2023-05-22T22:20:10.425Z,94593.53
2023-05-22T22:22:38.043Z,94597.03
2023-05-22T22:25:06.542Z,94595.91
2023-05-22T22:27:34.156Z,94599.25
2023-05-22T22:30:02.015Z,94591.81
2023-05-22T22:32:30.982Z,94596.63
2023-05-22T22:34:58.612Z,94603.66
2023-05-22T22:37:26.205Z,94602.03
2023-05-22T22:39:53.798Z,94601.72
2023-05-22T22:42:21.375Z,94601.13
2023-05-22T22:44:48.977Z,94598.69
2023-05-22T22:47:17.163Z,94608.59
2023-05-22T22:49:46.195Z,94608.66
2023-05-22T22:52:13.777Z,94605.41
2023-05-22T22:54:44.436Z,94604.88
2023-05-22T22:57:12.265Z,94610.91
2023-05-22T22:59:39.873Z,94602.88
2023-05-22T23:02:08.178Z,94607.56
2023-05-22T23:04:36.471Z,94610.84
2023-05-22T23:07:06.135Z,94607.00
2023-05-22T23:09:33.763Z,94607.00
2023-05-22T23:12:01.368Z,94616.34
2023-05-22T23:14:29.010Z,94607.81
2023-05-22T23:16:56.618Z,94607.81
2023-05-22T23:19:24.351Z,94609.22
2023-05-22T23:21:52.015Z,94615.00
2023-05-22T23:24:21.042Z,94616.91
2023-05-22T23:26:48.697Z,94618.03
2023-05-22T23:29:16.369Z,94616.72
2023-05-22T23:31:44.063Z,94616.22
2023-05-22T23:34:11.787Z,94627.19
2023-05-22T23:36:39.494Z,94624.84
2023-05-22T23:39:07.158Z,94630.72
2023-05-22T23:41:36.469Z,94625.75
2023-05-22T23:44:05.289Z,94632.06
2023-05-22T23:46:33.626Z,94637.59
2023-05-22T23:49:01.256Z,94641.69
2023-05-22T23:51:28.894Z,94631.81
2023-05-22T23:53:56.495Z,94635.69
2023-05-22T23:56:24.139Z,94637.88
2023-05-22T23:58:53.161Z,94639.06
